sensor_id;sensor_type;location;lat;lon;timestamp;P1;durP1;ratioP1;P2;durP2;ratioP2
73898;SDS011;62234;50.892;12.724;2023-08-06T00:00:06;3.67;;;3.38;;
73898;SDS011;62234;50.892;12.724;2023-08-06T00:02:33;5.95;;;3.83;;
73898;SDS011;62234;50.892;12.724;2023-08-06T00:04:59;6.05;;;3.40;;
73898;SDS011;62234;50.892;12.724;2023-08-06T00:07:25;6.65;;;3.88;;
73898;SDS011;62234;50.892;12.724;2023-08-06T00:09:51;3.72;;;3.17;;
73898;SDS011;62234;50.892;12.724;2023-08-06T00:12:17;4.43;;;3.58;;
73898;SDS011;62234;50.892;12.724;2023-08-06T00:14:43;6.30;;;3.50;;
73898;SDS011;62234;50.892;12.724;2023-08-06T00:17:09;4.13;;;3.65;;
73898;SDS011;62234;50.892;12.724;2023-08-06T00:19:35;6.35;;;3.42;;
73898;SDS011;62234;50.892;12.724;2023-08-06T00:22:01;3.63;;;3.33;;
73898;SDS011;62234;50.892;12.724;2023-08-06T00:24:27;3.53;;;2.90;;
73898;SDS011;62234;50.892;12.724;2023-08-06T00:26:53;3.42;;;2.92;;
73898;SDS011;62234;50.892;12.724;2023-08-06T00:29:19;3.28;;;2.83;;
73898;SDS011;62234;50.892;12.724;2023-08-06T00:31:45;4.75;;;2.90;;
73898;SDS011;62234;50.892;12.724;2023-08-06T00:34:11;4.80;;;2.55;;
73898;SDS011;62234;50.892;12.724;2023-08-06T00:36:37;4.13;;;3.20;;
73898;SDS011;62234;50.892;12.724;2023-08-06T00:39:03;4.88;;;3.08;;
73898;SDS011;62234;50.892;12.724;2023-08-06T00:41:29;2.97;;;2.70;;
73898;SDS011;62234;50.892;12.724;2023-08-06T00:43:55;3.47;;;3.05;;
73898;SDS011;62234;50.892;12.724;2023-08-06T00:46:20;3.40;;;2.95;;
73898;SDS011;62234;50.892;12.724;2023-08-06T00:48:47;4.90;;;3.17;;
73898;SDS011;62234;50.892;12.724;2023-08-06T00:51:13;3.72;;;2.88;;
73898;SDS011;62234;50.892;12.724;2023-08-06T00:53:39;3.55;;;2.95;;
73898;SDS011;62234;50.892;12.724;2023-08-06T00:56:06;3.28;;;3.00;;
73898;SDS011;62234;50.892;12.724;2023-08-06T00:58:33;6.20;;;3.08;;
73898;SDS011;62234;50.892;12.724;2023-08-06T01:00:59;4.07;;;3.25;;
73898;SDS011;62234;50.892;12.724;2023-08-06T01:03:25;4.53;;;2.92;;
73898;SDS011;62234;50.892;12.724;2023-08-06T01:05:52;4.03;;;2.70;;
73898;SDS011;62234;50.892;12.724;2023-08-06T01:08:20;4.30;;;2.83;;
73898;SDS011;62234;50.892;12.724;2023-08-06T01:13:16;2.90;;;2.50;;
73898;SDS011;62234;50.892;12.724;2023-08-06T01:15:49;3.40;;;3.10;;
73898;SDS011;62234;50.892;12.724;2023-08-06T01:18:16;5.38;;;2.95;;
73898;SDS011;62234;50.892;12.724;2023-08-06T01:20:42;3.63;;;3.20;;
73898;SDS011;62234;50.892;12.724;2023-08-06T01:23:08;3.00;;;2.70;;
73898;SDS011;62234;50.892;12.724;2023-08-06T01:25:41;3.63;;;2.80;;
73898;SDS011;62234;50.892;12.724;2023-08-06T01:28:11;6.95;;;2.53;;
73898;SDS011;62234;50.892;12.724;2023-08-06T01:30:40;2.55;;;2.35;;
73898;SDS011;62234;50.892;12.724;2023-08-06T01:33:07;3.60;;;2.53;;
73898;SDS011;62234;50.892;12.724;2023-08-06T01:35:35;3.42;;;2.63;;
73898;SDS011;62234;50.892;12.724;2023-08-06T01:38:02;4.15;;;2.83;;
73898;SDS011;62234;50.892;12.724;2023-08-06T01:40:28;9.07;;;2.97;;
73898;SDS011;62234;50.892;12.724;2023-08-06T01:42:54;3.22;;;2.70;;
73898;SDS011;62234;50.892;12.724;2023-08-06T01:45:20;2.72;;;2.50;;
73898;SDS011;62234;50.892;12.724;2023-08-06T01:47:46;2.90;;;2.53;;
73898;SDS011;62234;50.892;12.724;2023-08-06T01:50:12;3.10;;;2.80;;
73898;SDS011;62234;50.892;12.724;2023-08-06T01:52:38;2.92;;;2.70;;
73898;SDS011;62234;50.892;12.724;2023-08-06T01:55:04;3.90;;;2.53;;
73898;SDS011;62234;50.892;12.724;2023-08-06T01:57:30;2.88;;;2.58;;
73898;SDS011;62234;50.892;12.724;2023-08-06T01:59:56;4.80;;;2.90;;
73898;SDS011;62234;50.892;12.724;2023-08-06T02:02:22;5.63;;;2.97;;
73898;SDS011;62234;50.892;12.724;2023-08-06T02:04:48;3.03;;;2.67;;
73898;SDS011;62234;50.892;12.724;2023-08-06T02:07:14;4.63;;;3.05;;
73898;SDS011;62234;50.892;12.724;2023-08-06T02:09:40;3.28;;;2.60;;
73898;SDS011;62234;50.892;12.724;2023-08-06T02:12:06;3.20;;;2.90;;
73898;SDS011;62234;50.892;12.724;2023-08-06T02:14:33;6.90;;;3.15;;
73898;SDS011;62234;50.892;12.724;2023-08-06T02:17:00;3.78;;;2.88;;
73898;SDS011;62234;50.892;12.724;2023-08-06T02:19:26;7.30;;;3.13;;
73898;SDS011;62234;50.892;12.724;2023-08-06T02:21:51;3.28;;;2.92;;
73898;SDS011;62234;50.892;12.724;2023-08-06T02:24:17;4.13;;;3.15;;
73898;SDS011;62234;50.892;12.724;2023-08-06T02:26:43;4.47;;;3.20;;
73898;SDS011;62234;50.892;12.724;2023-08-06T02:29:09;4.15;;;3.30;;
73898;SDS011;62234;50.892;12.724;2023-08-06T02:31:35;4.75;;;2.92;;
73898;SDS011;62234;50.892;12.724;2023-08-06T02:34:01;4.22;;;3.55;;
73898;SDS011;62234;50.892;12.724;2023-08-06T02:36:27;4.68;;;3.28;;
73898;SDS011;62234;50.892;12.724;2023-08-06T02:38:54;4.18;;;3.15;;
73898;SDS011;62234;50.892;12.724;2023-08-06T02:41:20;3.72;;;3.05;;
73898;SDS011;62234;50.892;12.724;2023-08-06T02:43:46;2.95;;;2.70;;
73898;SDS011;62234;50.892;12.724;2023-08-06T02:46:12;4.70;;;3.15;;
73898;SDS011;62234;50.892;12.724;2023-08-06T02:48:38;4.93;;;3.25;;
73898;SDS011;62234;50.892;12.724;2023-08-06T02:51:04;3.80;;;3.42;;
73898;SDS011;62234;50.892;12.724;2023-08-06T02:53:30;3.63;;;3.15;;
73898;SDS011;62234;50.892;12.724;2023-08-06T02:55:56;4.10;;;2.80;;
73898;SDS011;62234;50.892;12.724;2023-08-06T02:58:23;2.92;;;2.67;;
73898;SDS011;62234;50.892;12.724;2023-08-06T03:01:02;3.10;;;2.55;;
73898;SDS011;62234;50.892;12.724;2023-08-06T03:03:31;4.88;;;2.95;;
73898;SDS011;62234;50.892;12.724;2023-08-06T03:05:57;4.07;;;3.05;;
73898;SDS011;62234;50.892;12.724;2023-08-06T03:08:23;4.30;;;3.17;;
73898;SDS011;62234;50.892;12.724;2023-08-06T03:10:50;5.38;;;3.35;;
73898;SDS011;62234;50.892;12.724;2023-08-06T03:13:16;2.97;;;2.67;;
73898;SDS011;62234;50.892;12.724;2023-08-06T03:15:42;3.28;;;2.65;;
73898;SDS011;62234;50.892;12.724;2023-08-06T03:18:08;3.30;;;2.88;;
73898;SDS011;62234;50.892;12.724;2023-08-06T03:20:34;2.83;;;2.40;;
73898;SDS011;62234;50.892;12.724;2023-08-06T03:23:00;3.80;;;2.55;;
73898;SDS011;62234;50.892;12.724;2023-08-06T03:25:26;4.18;;;3.30;;
73898;SDS011;62234;50.892;12.724;2023-08-06T03:27:52;4.88;;;2.92;;
73898;SDS011;62234;50.892;12.724;2023-08-06T03:30:18;3.40;;;2.80;;
73898;SDS011;62234;50.892;12.724;2023-08-06T03:32:44;4.50;;;2.70;;
73898;SDS011;62234;50.892;12.724;2023-08-06T03:35:10;4.32;;;3.13;;
73898;SDS011;62234;50.892;12.724;2023-08-06T03:37:35;4.30;;;2.97;;
73898;SDS011;62234;50.892;12.724;2023-08-06T03:40:01;2.88;;;2.65;;
73898;SDS011;62234;50.892;12.724;2023-08-06T03:42:28;3.00;;;2.70;;
73898;SDS011;62234;50.892;12.724;2023-08-06T03:44:54;3.13;;;2.78;;
73898;SDS011;62234;50.892;12.724;2023-08-06T03:47:19;2.65;;;2.45;;
73898;SDS011;62234;50.892;12.724;2023-08-06T03:49:45;4.68;;;2.33;;
73898;SDS011;62234;50.892;12.724;2023-08-06T03:52:11;7.90;;;2.65;;
73898;SDS011;62234;50.892;12.724;2023-08-06T03:54:37;2.88;;;1.80;;
73898;SDS011;62234;50.892;12.724;2023-08-06T03:57:04;2.55;;;1.95;;
73898;SDS011;62234;50.892;12.724;2023-08-06T03:59:30;2.55;;;1.80;;
73898;SDS011;62234;50.892;12.724;2023-08-06T04:01:56;4.57;;;1.92;;
73898;SDS011;62234;50.892;12.724;2023-08-06T04:04:22;2.95;;;1.83;;
73898;SDS011;62234;50.892;12.724;2023-08-06T04:06:47;2.22;;;1.98;;
73898;SDS011;62234;50.892;12.724;2023-08-06T04:09:13;1.55;;;1.45;;
73898;SDS011;62234;50.892;12.724;2023-08-06T04:11:39;1.83;;;1.60;;
73898;SDS011;62234;50.892;12.724;2023-08-06T04:14:05;1.50;;;1.40;;
73898;SDS011;62234;50.892;12.724;2023-08-06T04:16:31;2.95;;;1.55;;
73898;SDS011;62234;50.892;12.724;2023-08-06T04:18:57;4.10;;;1.75;;
73898;SDS011;62234;50.892;12.724;2023-08-06T04:21:23;1.77;;;1.35;;
73898;SDS011;62234;50.892;12.724;2023-08-06T04:23:49;1.27;;;1.17;;
73898;SDS011;62234;50.892;12.724;2023-08-06T04:26:15;1.55;;;1.40;;
73898;SDS011;62234;50.892;12.724;2023-08-06T04:28:41;1.52;;;1.42;;
73898;SDS011;62234;50.892;12.724;2023-08-06T04:31:07;1.50;;;1.25;;
73898;SDS011;62234;50.892;12.724;2023-08-06T04:33:33;1.40;;;1.30;;
73898;SDS011;62234;50.892;12.724;2023-08-06T04:35:59;1.95;;;1.30;;
73898;SDS011;62234;50.892;12.724;2023-08-06T04:38:26;1.83;;;1.13;;
73898;SDS011;62234;50.892;12.724;2023-08-06T04:40:52;1.60;;;1.33;;
73898;SDS011;62234;50.892;12.724;2023-08-06T04:43:18;1.33;;;1.15;;
73898;SDS011;62234;50.892;12.724;2023-08-06T04:45:50;1.20;;;1.10;;
73898;SDS011;62234;50.892;12.724;2023-08-06T04:48:17;1.50;;;1.20;;
73898;SDS011;62234;50.892;12.724;2023-08-06T04:50:43;1.40;;;1.30;;
73898;SDS011;62234;50.892;12.724;2023-08-06T04:53:09;2.47;;;1.60;;
73898;SDS011;62234;50.892;12.724;2023-08-06T04:55:35;1.67;;;1.58;;
73898;SDS011;62234;50.892;12.724;2023-08-06T04:58:01;3.15;;;1.50;;
73898;SDS011;62234;50.892;12.724;2023-08-06T05:00:27;2.10;;;1.63;;
73898;SDS011;62234;50.892;12.724;2023-08-06T05:02:53;4.82;;;1.92;;
73898;SDS011;62234;50.892;12.724;2023-08-06T05:05:19;1.50;;;1.40;;
73898;SDS011;62234;50.892;12.724;2023-08-06T05:07:48;1.73;;;1.63;;
73898;SDS011;62234;50.892;12.724;2023-08-06T05:10:15;2.92;;;1.40;;
73898;SDS011;62234;50.892;12.724;2023-08-06T05:12:41;4.03;;;1.50;;
73898;SDS011;62234;50.892;12.724;2023-08-06T05:15:07;1.38;;;1.27;;
73898;SDS011;62234;50.892;12.724;2023-08-06T05:17:33;1.85;;;1.30;;
73898;SDS011;62234;50.892;12.724;2023-08-06T05:19:59;1.60;;;1.42;;
73898;SDS011;62234;50.892;12.724;2023-08-06T05:22:25;2.88;;;1.40;;
73898;SDS011;62234;50.892;12.724;2023-08-06T05:24:51;3.08;;;1.60;;
73898;SDS011;62234;50.892;12.724;2023-08-06T05:27:17;3.03;;;1.60;;
73898;SDS011;62234;50.892;12.724;2023-08-06T05:29:46;6.78;;;1.50;;
73898;SDS011;62234;50.892;12.724;2023-08-06T05:32:12;4.13;;;1.88;;
73898;SDS011;62234;50.892;12.724;2023-08-06T05:34:37;1.77;;;1.65;;
73898;SDS011;62234;50.892;12.724;2023-08-06T05:37:03;3.17;;;1.70;;
73898;SDS011;62234;50.892;12.724;2023-08-06T05:39:30;1.70;;;1.60;;
73898;SDS011;62234;50.892;12.724;2023-08-06T05:41:55;4.13;;;1.40;;
73898;SDS011;62234;50.892;12.724;2023-08-06T05:44:22;1.02;;;0.80;;
73898;SDS011;62234;50.892;12.724;2023-08-06T05:46:49;2.38;;;1.27;;
73898;SDS011;62234;50.892;12.724;2023-08-06T05:49:15;1.40;;;1.17;;
73898;SDS011;62234;50.892;12.724;2023-08-06T05:51:41;2.15;;;1.17;;
73898;SDS011;62234;50.892;12.724;2023-08-06T05:54:07;2.35;;;1.73;;
73898;SDS011;62234;50.892;12.724;2023-08-06T05:56:33;6.25;;;1.30;;
73898;SDS011;62234;50.892;12.724;2023-08-06T05:58:59;2.30;;;1.10;;
73898;SDS011;62234;50.892;12.724;2023-08-06T06:01:25;3.00;;;1.00;;
73898;SDS011;62234;50.892;12.724;2023-08-06T06:03:51;1.40;;;1.30;;
73898;SDS011;62234;50.892;12.724;2023-08-06T06:06:17;2.38;;;1.60;;
73898;SDS011;62234;50.892;12.724;2023-08-06T06:08:44;5.60;;;1.20;;
73898;SDS011;62234;50.892;12.724;2023-08-06T06:11:10;2.55;;;1.88;;
73898;SDS011;62234;50.892;12.724;2023-08-06T06:13:36;2.10;;;1.30;;
73898;SDS011;62234;50.892;12.724;2023-08-06T06:16:02;1.52;;;1.42;;
73898;SDS011;62234;50.892;12.724;2023-08-06T06:18:28;1.73;;;1.52;;
73898;SDS011;62234;50.892;12.724;2023-08-06T06:20:53;1.92;;;1.50;;
73898;SDS011;62234;50.892;12.724;2023-08-06T06:23:19;1.30;;;1.20;;
73898;SDS011;62234;50.892;12.724;2023-08-06T06:25:49;2.15;;;1.50;;
73898;SDS011;62234;50.892;12.724;2023-08-06T06:28:18;2.92;;;1.17;;
73898;SDS011;62234;50.892;12.724;2023-08-06T06:30:44;2.30;;;1.50;;
73898;SDS011;62234;50.892;12.724;2023-08-06T06:33:10;4.32;;;1.25;;
73898;SDS011;62234;50.892;12.724;2023-08-06T06:35:36;3.22;;;1.65;;
73898;SDS011;62234;50.892;12.724;2023-08-06T06:38:02;1.50;;;1.40;;
73898;SDS011;62234;50.892;12.724;2023-08-06T06:40:28;1.10;;;1.10;;
73898;SDS011;62234;50.892;12.724;2023-08-06T06:42:54;2.35;;;1.38;;
73898;SDS011;62234;50.892;12.724;2023-08-06T06:45:20;2.28;;;1.40;;
73898;SDS011;62234;50.892;12.724;2023-08-06T06:47:46;2.83;;;1.70;;
73898;SDS011;62234;50.892;12.724;2023-08-06T06:50:12;2.15;;;1.60;;
73898;SDS011;62234;50.892;12.724;2023-08-06T06:52:38;2.05;;;1.20;;
73898;SDS011;62234;50.892;12.724;2023-08-06T06:55:04;2.67;;;1.42;;
73898;SDS011;62234;50.892;12.724;2023-08-06T06:57:30;2.05;;;1.85;;
73898;SDS011;62234;50.892;12.724;2023-08-06T06:59:56;1.85;;;1.70;;
73898;SDS011;62234;50.892;12.724;2023-08-06T07:02:22;1.42;;;1.33;;
73898;SDS011;62234;50.892;12.724;2023-08-06T07:04:49;4.03;;;2.10;;
73898;SDS011;62234;50.892;12.724;2023-08-06T07:07:15;2.00;;;1.52;;
73898;SDS011;62234;50.892;12.724;2023-08-06T07:09:41;1.63;;;1.52;;
73898;SDS011;62234;50.892;12.724;2023-08-06T07:12:07;1.90;;;1.80;;
73898;SDS011;62234;50.892;12.724;2023-08-06T07:14:33;4.40;;;1.38;;
73898;SDS011;62234;50.892;12.724;2023-08-06T07:16:59;2.40;;;1.73;;
73898;SDS011;62234;50.892;12.724;2023-08-06T07:19:25;2.35;;;1.98;;
73898;SDS011;62234;50.892;12.724;2023-08-06T07:21:50;1.90;;;1.75;;
73898;SDS011;62234;50.892;12.724;2023-08-06T07:24:16;1.63;;;1.48;;
73898;SDS011;62234;50.892;12.724;2023-08-06T07:26:42;3.10;;;2.33;;
73898;SDS011;62234;50.892;12.724;2023-08-06T07:29:08;2.10;;;1.80;;
73898;SDS011;62234;50.892;12.724;2023-08-06T07:31:34;4.55;;;2.15;;
73898;SDS011;62234;50.892;12.724;2023-08-06T07:34:01;2.35;;;1.63;;
73898;SDS011;62234;50.892;12.724;2023-08-06T07:36:27;2.50;;;2.15;;
73898;SDS011;62234;50.892;12.724;2023-08-06T07:38:53;2.15;;;1.60;;
73898;SDS011;62234;50.892;12.724;2023-08-06T07:41:22;2.00;;;1.80;;
73898;SDS011;62234;50.892;12.724;2023-08-06T07:43:48;2.30;;;1.77;;
73898;SDS011;62234;50.892;12.724;2023-08-06T07:46:14;2.50;;;2.15;;
73898;SDS011;62234;50.892;12.724;2023-08-06T07:48:40;2.40;;;1.95;;
73898;SDS011;62234;50.892;12.724;2023-08-06T07:51:06;1.95;;;1.85;;
73898;SDS011;62234;50.892;12.724;2023-08-06T07:53:32;2.00;;;1.35;;
73898;SDS011;62234;50.892;12.724;2023-08-06T07:55:58;2.83;;;1.50;;
73898;SDS011;62234;50.892;12.724;2023-08-06T07:58:27;3.05;;;1.90;;
73898;SDS011;62234;50.892;12.724;2023-08-06T08:00:54;1.95;;;1.83;;
73898;SDS011;62234;50.892;12.724;2023-08-06T08:03:20;2.63;;;1.80;;
73898;SDS011;62234;50.892;12.724;2023-08-06T08:05:46;2.17;;;1.70;;
73898;SDS011;62234;50.892;12.724;2023-08-06T08:08:12;2.40;;;2.20;;
73898;SDS011;62234;50.892;12.724;2023-08-06T08:10:38;1.60;;;1.50;;
73898;SDS011;62234;50.892;12.724;2023-08-06T08:13:04;3.28;;;1.48;;
73898;SDS011;62234;50.892;12.724;2023-08-06T08:15:30;2.78;;;1.90;;
73898;SDS011;62234;50.892;12.724;2023-08-06T08:17:57;2.85;;;1.40;;
73898;SDS011;62234;50.892;12.724;2023-08-06T08:20:23;1.63;;;1.35;;
73898;SDS011;62234;50.892;12.724;2023-08-06T08:22:49;1.38;;;1.27;;
73898;SDS011;62234;50.892;12.724;2023-08-06T08:25:15;1.45;;;1.30;;
73898;SDS011;62234;50.892;12.724;2023-08-06T08:27:41;1.27;;;1.10;;
73898;SDS011;62234;50.892;12.724;2023-08-06T08:30:07;1.85;;;1.55;;
73898;SDS011;62234;50.892;12.724;2023-08-06T08:32:34;2.10;;;1.60;;
73898;SDS011;62234;50.892;12.724;2023-08-06T08:35:00;2.28;;;1.40;;
73898;SDS011;62234;50.892;12.724;2023-08-06T08:37:25;2.25;;;1.95;;
73898;SDS011;62234;50.892;12.724;2023-08-06T08:39:51;1.40;;;1.30;;
73898;SDS011;62234;50.892;12.724;2023-08-06T08:42:17;1.30;;;1.20;;
73898;SDS011;62234;50.892;12.724;2023-08-06T08:44:43;1.77;;;1.20;;
73898;SDS011;62234;50.892;12.724;2023-08-06T08:47:10;2.25;;;2.05;;
73898;SDS011;62234;50.892;12.724;2023-08-06T08:49:36;1.95;;;1.40;;
73898;SDS011;62234;50.892;12.724;2023-08-06T08:52:03;2.03;;;1.77;;
73898;SDS011;62234;50.892;12.724;2023-08-06T08:54:35;1.52;;;1.40;;
73898;SDS011;62234;50.892;12.724;2023-08-06T08:57:03;1.38;;;1.27;;
73898;SDS011;62234;50.892;12.724;2023-08-06T08:59:29;1.63;;;1.30;;
73898;SDS011;62234;50.892;12.724;2023-08-06T09:01:55;2.45;;;1.67;;
73898;SDS011;62234;50.892;12.724;2023-08-06T09:04:22;1.45;;;1.35;;
73898;SDS011;62234;50.892;12.724;2023-08-06T09:06:50;2.70;;;1.40;;
73898;SDS011;62234;50.892;12.724;2023-08-06T09:09:26;2.53;;;1.73;;
73898;SDS011;62234;50.892;12.724;2023-08-06T09:11:53;1.50;;;1.38;;
73898;SDS011;62234;50.892;12.724;2023-08-06T09:14:21;3.08;;;1.52;;
73898;SDS011;62234;50.892;12.724;2023-08-06T09:16:47;1.73;;;1.25;;
73898;SDS011;62234;50.892;12.724;2023-08-06T09:19:13;4.45;;;2.10;;
73898;SDS011;62234;50.892;12.724;2023-08-06T09:21:40;1.90;;;1.40;;
73898;SDS011;62234;50.892;12.724;2023-08-06T09:24:07;1.50;;;1.40;;
73898;SDS011;62234;50.892;12.724;2023-08-06T09:26:34;1.92;;;1.63;;
73898;SDS011;62234;50.892;12.724;2023-08-06T09:29:00;1.58;;;1.45;;
73898;SDS011;62234;50.892;12.724;2023-08-06T09:31:32;2.25;;;1.63;;
73898;SDS011;62234;50.892;12.724;2023-08-06T09:34:01;1.67;;;1.55;;
73898;SDS011;62234;50.892;12.724;2023-08-06T09:36:28;1.85;;;1.35;;
73898;SDS011;62234;50.892;12.724;2023-08-06T09:38:53;1.63;;;1.52;;
73898;SDS011;62234;50.892;12.724;2023-08-06T09:41:25;1.48;;;1.38;;
73898;SDS011;62234;50.892;12.724;2023-08-06T09:43:53;1.75;;;1.52;;
73898;SDS011;62234;50.892;12.724;2023-08-06T09:46:19;1.73;;;1.52;;
73898;SDS011;62234;50.892;12.724;2023-08-06T09:48:47;1.50;;;1.40;;
73898;SDS011;62234;50.892;12.724;2023-08-06T09:51:14;3.15;;;1.60;;
73898;SDS011;62234;50.892;12.724;2023-08-06T09:53:40;2.25;;;1.45;;
73898;SDS011;62234;50.892;12.724;2023-08-06T09:56:06;2.30;;;1.35;;
73898;SDS011;62234;50.892;12.724;2023-08-06T09:58:32;1.50;;;1.40;;
73898;SDS011;62234;50.892;12.724;2023-08-06T10:00:59;1.35;;;1.25;;
73898;SDS011;62234;50.892;12.724;2023-08-06T10:03:25;1.20;;;1.10;;
73898;SDS011;62234;50.892;12.724;2023-08-06T10:05:54;1.67;;;1.58;;
73898;SDS011;62234;50.892;12.724;2023-08-06T10:08:21;2.28;;;1.30;;
73898;SDS011;62234;50.892;12.724;2023-08-06T10:10:47;1.15;;;1.00;;
73898;SDS011;62234;50.892;12.724;2023-08-06T10:13:13;1.50;;;1.40;;
73898;SDS011;62234;50.892;12.724;2023-08-06T10:15:40;3.67;;;1.23;;
73898;SDS011;62234;50.892;12.724;2023-08-06T10:18:06;2.67;;;1.58;;
73898;SDS011;62234;50.892;12.724;2023-08-06T10:20:34;1.88;;;1.23;;
73898;SDS011;62234;50.892;12.724;2023-08-06T10:23:00;1.80;;;1.40;;
73898;SDS011;62234;50.892;12.724;2023-08-06T10:25:28;2.30;;;1.40;;
73898;SDS011;62234;50.892;12.724;2023-08-06T10:27:55;2.03;;;1.67;;
73898;SDS011;62234;50.892;12.724;2023-08-06T10:30:28;1.48;;;1.10;;
73898;SDS011;62234;50.892;12.724;2023-08-06T10:33:02;1.80;;;1.58;;
73898;SDS011;62234;50.892;12.724;2023-08-06T10:35:35;1.92;;;1.27;;
73898;SDS011;62234;50.892;12.724;2023-08-06T10:38:05;1.25;;;1.10;;
73898;SDS011;62234;50.892;12.724;2023-08-06T10:40:33;1.98;;;1.30;;
73898;SDS011;62234;50.892;12.724;2023-08-06T10:43:00;1.23;;;1.13;;
73898;SDS011;62234;50.892;12.724;2023-08-06T10:45:26;4.10;;;1.38;;
73898;SDS011;62234;50.892;12.724;2023-08-06T10:47:54;1.50;;;1.40;;
73898;SDS011;62234;50.892;12.724;2023-08-06T10:50:23;1.25;;;1.13;;
73898;SDS011;62234;50.892;12.724;2023-08-06T10:52:49;1.10;;;1.10;;
73898;SDS011;62234;50.892;12.724;2023-08-06T10:55:22;1.73;;;1.25;;
73898;SDS011;62234;50.892;12.724;2023-08-06T10:57:49;1.67;;;1.58;;
73898;SDS011;62234;50.892;12.724;2023-08-06T11:00:15;1.23;;;1.13;;
73898;SDS011;62234;50.892;12.724;2023-08-06T11:02:41;1.85;;;1.10;;
73898;SDS011;62234;50.892;12.724;2023-08-06T11:05:09;1.35;;;1.13;;
73898;SDS011;62234;50.892;12.724;2023-08-06T11:07:35;1.52;;;1.27;;
73898;SDS011;62234;50.892;12.724;2023-08-06T11:10:02;1.50;;;1.27;;
73898;SDS011;62234;50.892;12.724;2023-08-06T11:12:28;1.80;;;1.30;;
73898;SDS011;62234;50.892;12.724;2023-08-06T11:14:54;1.73;;;1.40;;
73898;SDS011;62234;50.892;12.724;2023-08-06T11:17:20;2.20;;;1.42;;
73898;SDS011;62234;50.892;12.724;2023-08-06T11:19:46;0.93;;;0.93;;
73898;SDS011;62234;50.892;12.724;2023-08-06T11:22:14;3.13;;;1.50;;
73898;SDS011;62234;50.892;12.724;2023-08-06T11:24:39;1.40;;;1.30;;
73898;SDS011;62234;50.892;12.724;2023-08-06T11:27:12;1.17;;;0.95;;
73898;SDS011;62234;50.892;12.724;2023-08-06T11:29:39;2.13;;;1.40;;
73898;SDS011;62234;50.892;12.724;2023-08-06T11:32:05;1.55;;;1.45;;
73898;SDS011;62234;50.892;12.724;2023-08-06T11:34:31;1.30;;;1.17;;
73898;SDS011;62234;50.892;12.724;2023-08-06T11:36:57;1.25;;;1.10;;
73898;SDS011;62234;50.892;12.724;2023-08-06T11:39:23;1.30;;;1.20;;
73898;SDS011;62234;50.892;12.724;2023-08-06T11:41:50;1.15;;;1.13;;
73898;SDS011;62234;50.892;12.724;2023-08-06T11:44:16;1.77;;;1.20;;
73898;SDS011;62234;50.892;12.724;2023-08-06T11:46:53;1.13;;;0.98;;
73898;SDS011;62234;50.892;12.724;2023-08-06T11:49:21;1.23;;;1.00;;
73898;SDS011;62234;50.892;12.724;2023-08-06T11:51:49;0.57;;;0.57;;
73898;SDS011;62234;50.892;12.724;2023-08-06T11:54:15;1.70;;;0.63;;
73898;SDS011;62234;50.892;12.724;2023-08-06T11:56:41;0.98;;;0.98;;
73898;SDS011;62234;50.892;12.724;2023-08-06T11:59:08;1.05;;;0.80;;
73898;SDS011;62234;50.892;12.724;2023-08-06T12:01:34;0.70;;;0.43;;
73898;SDS011;62234;50.892;12.724;2023-08-06T12:04:00;0.60;;;0.60;;
73898;SDS011;62234;50.892;12.724;2023-08-06T12:06:29;1.05;;;0.68;;
73898;SDS011;62234;50.892;12.724;2023-08-06T12:08:55;2.10;;;0.70;;
73898;SDS011;62234;50.892;12.724;2023-08-06T12:11:21;1.17;;;0.63;;
73898;SDS011;62234;50.892;12.724;2023-08-06T12:13:50;0.73;;;0.55;;
73898;SDS011;62234;50.892;12.724;2023-08-06T12:16:16;0.45;;;0.40;;
73898;SDS011;62234;50.892;12.724;2023-08-06T12:18:44;0.82;;;0.57;;
73898;SDS011;62234;50.892;12.724;2023-08-06T12:21:10;0.80;;;0.70;;
73898;SDS011;62234;50.892;12.724;2023-08-06T12:23:36;0.98;;;0.88;;
73898;SDS011;62234;50.892;12.724;2023-08-06T12:26:02;1.02;;;0.68;;
73898;SDS011;62234;50.892;12.724;2023-08-06T12:28:28;0.63;;;0.63;;
73898;SDS011;62234;50.892;12.724;2023-08-06T12:30:53;2.38;;;0.70;;
73898;SDS011;62234;50.892;12.724;2023-08-06T12:33:20;1.17;;;0.60;;
73898;SDS011;62234;50.892;12.724;2023-08-06T12:35:46;1.80;;;0.80;;
73898;SDS011;62234;50.892;12.724;2023-08-06T12:38:12;1.35;;;0.98;;
73898;SDS011;62234;50.892;12.724;2023-08-06T12:40:38;0.90;;;0.90;;
73898;SDS011;62234;50.892;12.724;2023-08-06T12:43:04;2.33;;;1.27;;
73898;SDS011;62234;50.892;12.724;2023-08-06T12:45:30;7.60;;;1.30;;
73898;SDS011;62234;50.892;12.724;2023-08-06T12:47:56;4.80;;;1.23;;
73898;SDS011;62234;50.892;12.724;2023-08-06T12:50:22;3.10;;;1.40;;
73898;SDS011;62234;50.892;12.724;2023-08-06T12:52:48;4.30;;;1.00;;
73898;SDS011;62234;50.892;12.724;2023-08-06T12:55:14;2.95;;;1.42;;
73898;SDS011;62234;50.892;12.724;2023-08-06T12:57:40;9.40;;;1.73;;
73898;SDS011;62234;50.892;12.724;2023-08-06T13:00:06;4.18;;;1.20;;
73898;SDS011;62234;50.892;12.724;2023-08-06T13:02:32;1.40;;;1.08;;
73898;SDS011;62234;50.892;12.724;2023-08-06T13:04:58;2.00;;;1.13;;
73898;SDS011;62234;50.892;12.724;2023-08-06T13:07:24;2.42;;;1.60;;
73898;SDS011;62234;50.892;12.724;2023-08-06T13:09:50;1.38;;;1.13;;
73898;SDS011;62234;50.892;12.724;2023-08-06T13:12:16;1.55;;;1.00;;
73898;SDS011;62234;50.892;12.724;2023-08-06T13:14:45;2.40;;;0.95;;
73898;SDS011;62234;50.892;12.724;2023-08-06T13:17:11;3.40;;;0.88;;
73898;SDS011;62234;50.892;12.724;2023-08-06T13:19:37;1.60;;;0.90;;
73898;SDS011;62234;50.892;12.724;2023-08-06T13:22:03;2.40;;;1.00;;
73898;SDS011;62234;50.892;12.724;2023-08-06T13:24:31;1.95;;;0.90;;
73898;SDS011;62234;50.892;12.724;2023-08-06T13:26:58;1.85;;;0.73;;
73898;SDS011;62234;50.892;12.724;2023-08-06T13:29:24;2.20;;;0.73;;
73898;SDS011;62234;50.892;12.724;2023-08-06T13:31:51;2.03;;;0.82;;
73898;SDS011;62234;50.892;12.724;2023-08-06T13:34:17;2.60;;;0.75;;
73898;SDS011;62234;50.892;12.724;2023-08-06T13:36:43;6.72;;;0.93;;
73898;SDS011;62234;50.892;12.724;2023-08-06T13:39:09;1.25;;;1.02;;
73898;SDS011;62234;50.892;12.724;2023-08-06T13:41:36;1.38;;;0.90;;
73898;SDS011;62234;50.892;12.724;2023-08-06T13:44:03;0.70;;;0.70;;
73898;SDS011;62234;50.892;12.724;2023-08-06T13:46:29;0.90;;;0.88;;
73898;SDS011;62234;50.892;12.724;2023-08-06T13:48:55;1.33;;;1.23;;
73898;SDS011;62234;50.892;12.724;2023-08-06T13:51:21;7.15;;;6.00;;
73898;SDS011;62234;50.892;12.724;2023-08-06T13:53:47;5.85;;;4.32;;
73898;SDS011;62234;50.892;12.724;2023-08-06T13:56:13;5.07;;;1.70;;
73898;SDS011;62234;50.892;12.724;2023-08-06T13:58:42;3.00;;;1.90;;
73898;SDS011;62234;50.892;12.724;2023-08-06T14:01:09;1.40;;;1.30;;
73898;SDS011;62234;50.892;12.724;2023-08-06T14:03:35;4.13;;;1.58;;
73898;SDS011;62234;50.892;12.724;2023-08-06T14:06:01;1.17;;;0.82;;
73898;SDS011;62234;50.892;12.724;2023-08-06T14:08:27;3.40;;;1.10;;
73898;SDS011;62234;50.892;12.724;2023-08-06T14:10:53;4.15;;;0.95;;
73898;SDS011;62234;50.892;12.724;2023-08-06T14:13:19;2.25;;;0.68;;
73898;SDS011;62234;50.892;12.724;2023-08-06T14:15:45;1.73;;;0.60;;
73898;SDS011;62234;50.892;12.724;2023-08-06T14:18:14;0.98;;;0.80;;
73898;SDS011;62234;50.892;12.724;2023-08-06T14:20:40;1.77;;;0.60;;
73898;SDS011;62234;50.892;12.724;2023-08-06T14:23:06;2.15;;;0.70;;
73898;SDS011;62234;50.892;12.724;2023-08-06T14:25:32;3.22;;;0.85;;
73898;SDS011;62234;50.892;12.724;2023-08-06T14:27:58;5.75;;;1.20;;
73898;SDS011;62234;50.892;12.724;2023-08-06T14:30:24;1.38;;;0.73;;